Weather at Crater Lake-Klamath Regional Airport

Public forecast

Using degrees Fahrenheit for public forecast. Weather courtesy of forecast.io.

Current aviation weather report (METAR) for Crater Lake-Klamath Regional Airport

Retrieved 2021/06/17 00:53 UTC (51 minutes ago):

KLMT 170053Z VRB05KT 10SM CLR 28/M01 A3014 RMK AO2 SLP173 T02781006

Aviation forecast (TAF) for Crater Lake-Klamath Regional Airport

Retrieved 2021-06-17 00:45 UTC (59 minutes ago):

TAF KLMT 162342Z 1700/1724 33008KT P6SM SKC